PENO2: Grand Lake O' The Cherokees, Pensacola Dm

Data processed at Wed 06Apr2022 04:42


All information presented herein is the property of the government of the United States of America and may be revised or deleted at any time without prior notice.
Dissemination of this information without the expressed written consent of the Public Affairs Office, Tulsa District U.S. Army Corps of Engineers is strictly prohibited.
These data are gathered electronically and, as presented, have not undergone any form of quality control. These data are not guaranteed to be valid or correct.
Go to home page.
Go to station list.

Upstream stations:

Downstream station:
Previous Day
Next Day
Current Day
    
SHEF ID:       PENO2     Pensacola (Grand Lake)
STATION TYPE:  RESERVOIR
Flood Pool:  Bottom =   742.00, Top =   755.00

               PRECIP ELEVATION   STORAGE    INFLOW   RELEASE  AIR-TEMP  WIND-DIRWIND-SPEED REL-HUMID SOLAR-RAD   VOLTAGE  BAT-LOAD
                   in        ft     ac-ft       cfs       cfs         F       deg       mph         %      W/m2      volt      volt
              Ccp-Rev   Ccp-Rev   Ccp-Rev  Rev-Regi  Rev-Regi   Ccp-Rev   Ccp-Rev   Ccp-Rev   Ccp-Rev   Ccp-Rev   Ccp-Rev   Ccp-Rev
(US/Central)
04/05 00:00      0.00    743.75   1382051      7541     13533     56.55     13.21      1.83     96.29      0.00     12.61     12.33
04/05 01:00      0.00    743.75   1382051      8348     13538     56.05      5.26      1.71     96.96      0.00     12.60     12.33
04/05 02:00      0.00    743.73   1381184      6867     13545     55.98     17.92      1.52     97.40      0.00     13.25     12.97
04/05 03:00      0.00    743.74   1381617      7871     13543     56.01    168.68      1.14     96.21      0.00     13.26     12.97
04/05 04:00      0.00    743.71   1380317      8954     13547     55.98     44.39      0.85     95.45      0.00     13.28      ----
04/05 05:00      0.00    743.70   1379883      8409     13542     54.19    321.37      1.49     99.50      0.00     13.29     12.97
04/05 06:00      0.00    743.71   1380317      8553     13547     53.26    212.62      0.18    100.05      0.00     13.32     12.97
04/05 07:00      0.00    743.67   1378583      9116     13547     52.56    349.68      0.26    100.07      0.00     13.36     12.97
04/05 08:00      0.00    743.68   1379016      8131     13556     54.70    157.63      1.47     97.99      5.77     13.41     12.97
04/05 09:00      0.00    743.66   1378149      5192     13554     56.08    167.39      1.44     96.21     25.98     13.42     12.89
04/05 10:00      0.00    743.66   1378149      5756     13557     59.11    163.65      2.63     90.23    240.79     12.83     12.73
04/05 11:00      0.00    743.62   1376415      2827     13558     62.91    165.14      4.60     81.60    366.98     12.77     12.49
04/05 12:00      0.00    743.63   1376849      6756     13574     65.95    162.23      5.14     73.79    643.73     12.76     12.49
04/05 13:00      0.00    743.58   1374682      8726     13575     68.94    158.77      6.06     65.81    710.61     12.75     12.49
04/05 14:00      0.00    743.60   1375549      9802     13571     71.04    157.62      4.36     62.75    772.65     12.75     12.49
04/05 15:00      0.00    743.60   1375549      9238     13570     73.54    166.62      4.21     58.93    746.98     12.74     12.49
04/05 16:00      0.00    743.59   1375115     12366     13566     75.20    157.84      5.44     57.33    514.50     12.74     12.49
04/05 17:00      0.00    743.56   1373815     11578     13557     76.37    173.39      7.80     55.90    479.41     12.73     12.41
04/05 18:00      0.00    743.57   1374248     10682     13556     76.80    177.24      6.39     55.04    333.29     12.73     12.41
04/05 19:00      0.00    743.58   1374682     10680     13558     74.34    228.77      4.84     62.08     73.67     12.72     12.41
04/05 20:00      0.00    743.57   1374248     16448     13557     71.89    267.26      4.67     68.69      4.15     12.71     12.41
04/05 21:00      0.00    743.56   1373815     14382     13554     68.90    305.22      1.67     74.04      0.00     12.69     12.41
04/05 22:00      0.00    743.59   1375115     20579     13554     64.74    306.38      4.35     82.28      0.00     12.67     12.41
04/05 23:00      0.00    743.62   1376415      ----      ----     62.46    334.38     14.48     73.33      0.00     12.65     12.41